sensor_id;sensor_type;location;lat;lon;timestamp;P1;durP1;ratioP1;P2;durP2;ratioP2
21237;SDS011;10777;50.828;3.264;2022-07-29T00:01:48;9.20;;;3.00;;
21237;SDS011;10777;50.828;3.264;2022-07-29T00:04:14;4.70;;;2.67;;
21237;SDS011;10777;50.828;3.264;2022-07-29T00:06:40;5.72;;;2.30;;
21237;SDS011;10777;50.828;3.264;2022-07-29T00:09:06;4.87;;;2.73;;
21237;SDS011;10777;50.828;3.264;2022-07-29T00:11:32;5.40;;;2.50;;
21237;SDS011;10777;50.828;3.264;2022-07-29T00:13:57;8.25;;;3.17;;
21237;SDS011;10777;50.828;3.264;2022-07-29T00:16:23;8.67;;;2.77;;
21237;SDS011;10777;50.828;3.264;2022-07-29T00:18:49;7.40;;;2.73;;
21237;SDS011;10777;50.828;3.264;2022-07-29T00:21:14;3.30;;;2.30;;
21237;SDS011;10777;50.828;3.264;2022-07-29T00:23:40;12.43;;;2.37;;
21237;SDS011;10777;50.828;3.264;2022-07-29T00:26:06;5.03;;;2.40;;
21237;SDS011;10777;50.828;3.264;2022-07-29T00:28:31;4.50;;;2.77;;
21237;SDS011;10777;50.828;3.264;2022-07-29T00:30:57;7.97;;;2.63;;
21237;SDS011;10777;50.828;3.264;2022-07-29T00:33:23;5.80;;;2.60;;
21237;SDS011;10777;50.828;3.264;2022-07-29T00:35:48;5.70;;;3.10;;
21237;SDS011;10777;50.828;3.264;2022-07-29T00:38:16;7.43;;;2.60;;
21237;SDS011;10777;50.828;3.264;2022-07-29T00:40:43;5.10;;;2.93;;
21237;SDS011;10777;50.828;3.264;2022-07-29T00:43:09;8.95;;;2.78;;
21237;SDS011;10777;50.828;3.264;2022-07-29T00:45:35;12.47;;;3.10;;
21237;SDS011;10777;50.828;3.264;2022-07-29T00:48:01;6.47;;;3.03;;
21237;SDS011;10777;50.828;3.264;2022-07-29T00:50:29;8.37;;;2.73;;
21237;SDS011;10777;50.828;3.264;2022-07-29T00:52:56;9.33;;;2.80;;
21237;SDS011;10777;50.828;3.264;2022-07-29T00:55:21;6.60;;;3.20;;
21237;SDS011;10777;50.828;3.264;2022-07-29T00:57:47;7.70;;;2.47;;
21237;SDS011;10777;50.828;3.264;2022-07-29T01:00:15;5.97;;;3.03;;
21237;SDS011;10777;50.828;3.264;2022-07-29T01:02:44;5.03;;;3.03;;
21237;SDS011;10777;50.828;3.264;2022-07-29T01:05:13;7.67;;;3.00;;
21237;SDS011;10777;50.828;3.264;2022-07-29T01:07:41;5.47;;;2.80;;
21237;SDS011;10777;50.828;3.264;2022-07-29T01:10:08;9.17;;;2.80;;
21237;SDS011;10777;50.828;3.264;2022-07-29T01:12:36;6.10;;;2.60;;
21237;SDS011;10777;50.828;3.264;2022-07-29T01:15:03;5.40;;;2.60;;
21237;SDS011;10777;50.828;3.264;2022-07-29T01:17:42;7.30;;;2.60;;
21237;SDS011;10777;50.828;3.264;2022-07-29T01:20:17;7.07;;;3.50;;
21237;SDS011;10777;50.828;3.264;2022-07-29T01:23:01;5.10;;;3.47;;
21237;SDS011;10777;50.828;3.264;2022-07-29T01:31:42;5.53;;;3.00;;
21237;SDS011;10777;50.828;3.264;2022-07-29T01:34:17;5.10;;;3.20;;
21237;SDS011;10777;50.828;3.264;2022-07-29T01:36:50;9.27;;;3.20;;
21237;SDS011;10777;50.828;3.264;2022-07-29T01:39:27;9.50;;;3.80;;
21237;SDS011;10777;50.828;3.264;2022-07-29T01:41:59;8.07;;;3.77;;
21237;SDS011;10777;50.828;3.264;2022-07-29T01:44:35;11.57;;;4.27;;
21237;SDS011;10777;50.828;3.264;2022-07-29T01:47:10;8.70;;;3.47;;
21237;SDS011;10777;50.828;3.264;2022-07-29T01:49:41;7.77;;;3.70;;
21237;SDS011;10777;50.828;3.264;2022-07-29T01:52:15;10.53;;;3.57;;
21237;SDS011;10777;50.828;3.264;2022-07-29T01:54:49;8.13;;;3.77;;
21237;SDS011;10777;50.828;3.264;2022-07-29T01:57:20;7.60;;;4.10;;
21237;SDS011;10777;50.828;3.264;2022-07-29T01:59:49;9.83;;;4.53;;
21237;SDS011;10777;50.828;3.264;2022-07-29T02:02:17;11.10;;;4.47;;
21237;SDS011;10777;50.828;3.264;2022-07-29T02:04:44;8.97;;;3.97;;
21237;SDS011;10777;50.828;3.264;2022-07-29T02:07:15;10.37;;;4.50;;
21237;SDS011;10777;50.828;3.264;2022-07-29T02:09:44;9.60;;;4.17;;
21237;SDS011;10777;50.828;3.264;2022-07-29T02:12:13;9.17;;;4.30;;
21237;SDS011;10777;50.828;3.264;2022-07-29T02:14:43;12.27;;;4.73;;
21237;SDS011;10777;50.828;3.264;2022-07-29T02:17:10;9.47;;;4.00;;
21237;SDS011;10777;50.828;3.264;2022-07-29T02:19:38;6.73;;;4.10;;
21237;SDS011;10777;50.828;3.264;2022-07-29T02:22:06;9.43;;;4.60;;
21237;SDS011;10777;50.828;3.264;2022-07-29T02:24:34;11.40;;;4.37;;
21237;SDS011;10777;50.828;3.264;2022-07-29T02:27:02;10.67;;;5.13;;
21237;SDS011;10777;50.828;3.264;2022-07-29T02:29:29;8.53;;;4.40;;
21237;SDS011;10777;50.828;3.264;2022-07-29T02:31:56;13.13;;;4.77;;
21237;SDS011;10777;50.828;3.264;2022-07-29T02:34:25;10.67;;;4.63;;
21237;SDS011;10777;50.828;3.264;2022-07-29T02:36:53;10.97;;;4.90;;
21237;SDS011;10777;50.828;3.264;2022-07-29T02:39:20;8.00;;;4.50;;
21237;SDS011;10777;50.828;3.264;2022-07-29T02:41:49;8.93;;;4.73;;
21237;SDS011;10777;50.828;3.264;2022-07-29T02:44:18;9.87;;;4.43;;
21237;SDS011;10777;50.828;3.264;2022-07-29T02:49:38;14.53;;;5.13;;
21237;SDS011;10777;50.828;3.264;2022-07-29T02:52:12;9.03;;;4.87;;
21237;SDS011;10777;50.828;3.264;2022-07-29T02:54:46;9.37;;;5.03;;
21237;SDS011;10777;50.828;3.264;2022-07-29T02:57:20;15.03;;;5.00;;
21237;SDS011;10777;50.828;3.264;2022-07-29T02:59:51;9.00;;;5.57;;
21237;SDS011;10777;50.828;3.264;2022-07-29T03:02:19;24.63;;;6.23;;
21237;SDS011;10777;50.828;3.264;2022-07-29T03:04:46;9.80;;;6.33;;
21237;SDS011;10777;50.828;3.264;2022-07-29T03:07:14;12.33;;;5.87;;
21237;SDS011;10777;50.828;3.264;2022-07-29T03:09:43;11.77;;;6.33;;
21237;SDS011;10777;50.828;3.264;2022-07-29T03:12:10;13.70;;;6.67;;
21237;SDS011;10777;50.828;3.264;2022-07-29T03:14:36;10.57;;;5.60;;
21237;SDS011;10777;50.828;3.264;2022-07-29T03:17:03;13.37;;;5.40;;
21237;SDS011;10777;50.828;3.264;2022-07-29T03:19:29;17.90;;;5.93;;
21237;SDS011;10777;50.828;3.264;2022-07-29T03:21:56;10.00;;;5.53;;
21237;SDS011;10777;50.828;3.264;2022-07-29T03:24:25;12.53;;;5.77;;
21237;SDS011;10777;50.828;3.264;2022-07-29T03:26:52;7.97;;;5.43;;
21237;SDS011;10777;50.828;3.264;2022-07-29T03:29:19;7.97;;;5.13;;
21237;SDS011;10777;50.828;3.264;2022-07-29T03:31:44;11.97;;;5.07;;
21237;SDS011;10777;50.828;3.264;2022-07-29T03:34:10;11.70;;;5.13;;
21237;SDS011;10777;50.828;3.264;2022-07-29T03:36:36;9.77;;;5.53;;
21237;SDS011;10777;50.828;3.264;2022-07-29T03:39:02;7.33;;;5.20;;
21237;SDS011;10777;50.828;3.264;2022-07-29T03:41:29;12.20;;;5.50;;
21237;SDS011;10777;50.828;3.264;2022-07-29T03:43:56;14.83;;;5.60;;
21237;SDS011;10777;50.828;3.264;2022-07-29T03:46:23;13.13;;;5.67;;
21237;SDS011;10777;50.828;3.264;2022-07-29T03:48:55;9.63;;;5.50;;
21237;SDS011;10777;50.828;3.264;2022-07-29T03:51:27;11.33;;;5.47;;
21237;SDS011;10777;50.828;3.264;2022-07-29T03:53:52;12.33;;;5.20;;
21237;SDS011;10777;50.828;3.264;2022-07-29T03:56:20;9.50;;;4.87;;
21237;SDS011;10777;50.828;3.264;2022-07-29T03:58:47;10.73;;;4.70;;
21237;SDS011;10777;50.828;3.264;2022-07-29T04:01:15;11.23;;;5.00;;
21237;SDS011;10777;50.828;3.264;2022-07-29T04:03:43;9.17;;;5.27;;
21237;SDS011;10777;50.828;3.264;2022-07-29T04:06:10;9.73;;;5.57;;
21237;SDS011;10777;50.828;3.264;2022-07-29T04:08:36;11.37;;;5.57;;
21237;SDS011;10777;50.828;3.264;2022-07-29T04:11:03;10.07;;;5.00;;
21237;SDS011;10777;50.828;3.264;2022-07-29T04:13:30;15.60;;;5.17;;
21237;SDS011;10777;50.828;3.264;2022-07-29T04:15:56;8.53;;;5.23;;
21237;SDS011;10777;50.828;3.264;2022-07-29T04:18:22;5.93;;;4.77;;
21237;SDS011;10777;50.828;3.264;2022-07-29T04:20:48;15.47;;;5.30;;
21237;SDS011;10777;50.828;3.264;2022-07-29T04:23:14;7.83;;;4.90;;
21237;SDS011;10777;50.828;3.264;2022-07-29T04:25:40;9.67;;;5.03;;
21237;SDS011;10777;50.828;3.264;2022-07-29T04:28:07;9.93;;;5.00;;
21237;SDS011;10777;50.828;3.264;2022-07-29T04:30:33;14.07;;;5.30;;
21237;SDS011;10777;50.828;3.264;2022-07-29T04:33:01;13.77;;;5.27;;
21237;SDS011;10777;50.828;3.264;2022-07-29T04:35:28;11.07;;;5.20;;
21237;SDS011;10777;50.828;3.264;2022-07-29T04:37:54;12.33;;;5.23;;
21237;SDS011;10777;50.828;3.264;2022-07-29T04:40:20;12.80;;;5.23;;
21237;SDS011;10777;50.828;3.264;2022-07-29T04:42:46;12.53;;;5.07;;
21237;SDS011;10777;50.828;3.264;2022-07-29T04:45:12;13.63;;;5.70;;
21237;SDS011;10777;50.828;3.264;2022-07-29T04:47:37;12.57;;;5.90;;
21237;SDS011;10777;50.828;3.264;2022-07-29T04:50:03;11.63;;;5.30;;
21237;SDS011;10777;50.828;3.264;2022-07-29T04:52:32;12.50;;;5.30;;
21237;SDS011;10777;50.828;3.264;2022-07-29T04:54:57;14.40;;;4.97;;
21237;SDS011;10777;50.828;3.264;2022-07-29T04:57:23;12.30;;;5.50;;
21237;SDS011;10777;50.828;3.264;2022-07-29T04:59:49;11.33;;;5.33;;
21237;SDS011;10777;50.828;3.264;2022-07-29T05:02:14;13.07;;;5.17;;
21237;SDS011;10777;50.828;3.264;2022-07-29T05:04:40;7.80;;;4.63;;
21237;SDS011;10777;50.828;3.264;2022-07-29T05:07:06;11.37;;;5.07;;
21237;SDS011;10777;50.828;3.264;2022-07-29T05:09:31;13.60;;;4.97;;
21237;SDS011;10777;50.828;3.264;2022-07-29T05:11:57;20.60;;;5.40;;
21237;SDS011;10777;50.828;3.264;2022-07-29T05:14:23;7.73;;;5.10;;
21237;SDS011;10777;50.828;3.264;2022-07-29T05:16:48;9.97;;;4.77;;
21237;SDS011;10777;50.828;3.264;2022-07-29T05:19:16;8.83;;;5.20;;
21237;SDS011;10777;50.828;3.264;2022-07-29T05:21:42;6.80;;;4.80;;
21237;SDS011;10777;50.828;3.264;2022-07-29T05:24:09;9.33;;;5.00;;
21237;SDS011;10777;50.828;3.264;2022-07-29T05:26:35;8.70;;;5.23;;
21237;SDS011;10777;50.828;3.264;2022-07-29T05:29:00;11.43;;;5.60;;
21237;SDS011;10777;50.828;3.264;2022-07-29T05:31:26;9.80;;;6.30;;
21237;SDS011;10777;50.828;3.264;2022-07-29T05:33:52;11.87;;;6.60;;
21237;SDS011;10777;50.828;3.264;2022-07-29T05:36:18;9.03;;;6.50;;
21237;SDS011;10777;50.828;3.264;2022-07-29T05:38:44;12.57;;;6.27;;
21237;SDS011;10777;50.828;3.264;2022-07-29T05:41:10;16.57;;;6.63;;
21237;SDS011;10777;50.828;3.264;2022-07-29T05:43:35;13.30;;;6.60;;
21237;SDS011;10777;50.828;3.264;2022-07-29T05:46:01;10.83;;;6.80;;
21237;SDS011;10777;50.828;3.264;2022-07-29T05:48:27;19.73;;;7.50;;
21237;SDS011;10777;50.828;3.264;2022-07-29T05:50:53;11.47;;;6.47;;
21237;SDS011;10777;50.828;3.264;2022-07-29T05:53:19;13.00;;;7.07;;
21237;SDS011;10777;50.828;3.264;2022-07-29T05:55:45;10.85;;;6.63;;
21237;SDS011;10777;50.828;3.264;2022-07-29T05:58:14;11.07;;;7.30;;
21237;SDS011;10777;50.828;3.264;2022-07-29T06:00:40;13.40;;;6.85;;
21237;SDS011;10777;50.828;3.264;2022-07-29T06:03:06;15.37;;;6.63;;
21237;SDS011;10777;50.828;3.264;2022-07-29T06:05:32;16.33;;;6.30;;
21237;SDS011;10777;50.828;3.264;2022-07-29T06:07:58;16.53;;;6.27;;
21237;SDS011;10777;50.828;3.264;2022-07-29T06:10:23;13.23;;;6.33;;
21237;SDS011;10777;50.828;3.264;2022-07-29T06:12:49;9.83;;;6.17;;
21237;SDS011;10777;50.828;3.264;2022-07-29T06:15:15;12.60;;;5.80;;
21237;SDS011;10777;50.828;3.264;2022-07-29T06:17:51;15.75;;;6.03;;
21237;SDS011;10777;50.828;3.264;2022-07-29T06:20:24;12.27;;;5.80;;
21237;SDS011;10777;50.828;3.264;2022-07-29T06:22:51;19.38;;;6.43;;
21237;SDS011;10777;50.828;3.264;2022-07-29T06:25:17;14.60;;;6.15;;
21237;SDS011;10777;50.828;3.264;2022-07-29T06:27:43;20.13;;;5.50;;
21237;SDS011;10777;50.828;3.264;2022-07-29T06:30:08;21.33;;;6.00;;
21237;SDS011;10777;50.828;3.264;2022-07-29T06:32:35;17.02;;;6.18;;
21237;SDS011;10777;50.828;3.264;2022-07-29T06:35:01;14.65;;;5.75;;
21237;SDS011;10777;50.828;3.264;2022-07-29T06:37:26;19.85;;;5.50;;
21237;SDS011;10777;50.828;3.264;2022-07-29T06:39:52;13.00;;;5.60;;
21237;SDS011;10777;50.828;3.264;2022-07-29T06:42:41;11.85;;;5.18;;
21237;SDS011;10777;50.828;3.264;2022-07-29T06:45:08;19.42;;;5.60;;
21237;SDS011;10777;50.828;3.264;2022-07-29T06:47:34;13.30;;;5.78;;
21237;SDS011;10777;50.828;3.264;2022-07-29T06:50:00;12.50;;;5.20;;
21237;SDS011;10777;50.828;3.264;2022-07-29T06:52:25;10.60;;;4.68;;
21237;SDS011;10777;50.828;3.264;2022-07-29T06:54:51;13.25;;;5.63;;
21237;SDS011;10777;50.828;3.264;2022-07-29T06:57:17;12.95;;;6.72;;
21237;SDS011;10777;50.828;3.264;2022-07-29T06:59:42;7.88;;;5.30;;
21237;SDS011;10777;50.828;3.264;2022-07-29T07:02:08;8.20;;;5.65;;
21237;SDS011;10777;50.828;3.264;2022-07-29T07:04:34;12.88;;;5.13;;
21237;SDS011;10777;50.828;3.264;2022-07-29T07:06:59;12.25;;;5.55;;
21237;SDS011;10777;50.828;3.264;2022-07-29T07:09:25;10.45;;;6.35;;
21237;SDS011;10777;50.828;3.264;2022-07-29T07:11:51;17.58;;;5.60;;
21237;SDS011;10777;50.828;3.264;2022-07-29T07:14:17;13.27;;;5.78;;
21237;SDS011;10777;50.828;3.264;2022-07-29T07:16:42;14.70;;;5.72;;
21237;SDS011;10777;50.828;3.264;2022-07-29T07:19:08;13.65;;;5.55;;
21237;SDS011;10777;50.828;3.264;2022-07-29T07:21:34;11.00;;;4.97;;
21237;SDS011;10777;50.828;3.264;2022-07-29T07:24:00;14.40;;;5.22;;
21237;SDS011;10777;50.828;3.264;2022-07-29T07:26:26;18.40;;;6.10;;
21237;SDS011;10777;50.828;3.264;2022-07-29T07:28:52;16.42;;;5.20;;
21237;SDS011;10777;50.828;3.264;2022-07-29T07:31:18;16.08;;;5.90;;
21237;SDS011;10777;50.828;3.264;2022-07-29T07:33:44;16.75;;;5.55;;
21237;SDS011;10777;50.828;3.264;2022-07-29T07:36:09;13.05;;;5.60;;
21237;SDS011;10777;50.828;3.264;2022-07-29T07:38:35;15.82;;;5.50;;
21237;SDS011;10777;50.828;3.264;2022-07-29T07:41:01;11.95;;;5.05;;
21237;SDS011;10777;50.828;3.264;2022-07-29T07:43:27;11.23;;;5.07;;
21237;SDS011;10777;50.828;3.264;2022-07-29T07:45:53;14.95;;;6.10;;
21237;SDS011;10777;50.828;3.264;2022-07-29T07:48:19;10.57;;;4.90;;
21237;SDS011;10777;50.828;3.264;2022-07-29T07:50:45;18.35;;;5.53;;
21237;SDS011;10777;50.828;3.264;2022-07-29T07:53:11;14.10;;;4.85;;
21237;SDS011;10777;50.828;3.264;2022-07-29T07:55:44;15.90;;;4.97;;
21237;SDS011;10777;50.828;3.264;2022-07-29T07:58:10;10.23;;;5.22;;
21237;SDS011;10777;50.828;3.264;2022-07-29T08:00:35;23.17;;;5.28;;
21237;SDS011;10777;50.828;3.264;2022-07-29T08:03:02;15.75;;;5.18;;
21237;SDS011;10777;50.828;3.264;2022-07-29T08:05:28;10.82;;;4.35;;
21237;SDS011;10777;50.828;3.264;2022-07-29T08:07:53;11.63;;;4.13;;
21237;SDS011;10777;50.828;3.264;2022-07-29T08:10:19;12.15;;;4.35;;
21237;SDS011;10777;50.828;3.264;2022-07-29T08:13:06;9.45;;;4.68;;
21237;SDS011;10777;50.828;3.264;2022-07-29T08:15:32;11.50;;;5.00;;
21237;SDS011;10777;50.828;3.264;2022-07-29T08:17:59;8.52;;;4.30;;
21237;SDS011;10777;50.828;3.264;2022-07-29T08:20:24;11.77;;;4.95;;
21237;SDS011;10777;50.828;3.264;2022-07-29T08:22:50;14.85;;;4.32;;
21237;SDS011;10777;50.828;3.264;2022-07-29T08:25:17;13.38;;;4.60;;
21237;SDS011;10777;50.828;3.264;2022-07-29T08:27:45;12.05;;;4.40;;
21237;SDS011;10777;50.828;3.264;2022-07-29T08:30:11;9.05;;;4.50;;
21237;SDS011;10777;50.828;3.264;2022-07-29T08:32:37;7.95;;;3.70;;
21237;SDS011;10777;50.828;3.264;2022-07-29T08:35:03;7.20;;;4.28;;
21237;SDS011;10777;50.828;3.264;2022-07-29T08:37:30;18.63;;;4.95;;
21237;SDS011;10777;50.828;3.264;2022-07-29T08:39:55;14.45;;;4.80;;
21237;SDS011;10777;50.828;3.264;2022-07-29T08:42:21;8.20;;;4.45;;
21237;SDS011;10777;50.828;3.264;2022-07-29T08:44:47;12.18;;;4.38;;
21237;SDS011;10777;50.828;3.264;2022-07-29T08:47:15;14.27;;;4.50;;
21237;SDS011;10777;50.828;3.264;2022-07-29T08:49:42;11.05;;;3.90;;
21237;SDS011;10777;50.828;3.264;2022-07-29T08:52:10;18.20;;;3.08;;
21237;SDS011;10777;50.828;3.264;2022-07-29T08:54:36;8.63;;;3.33;;
21237;SDS011;10777;50.828;3.264;2022-07-29T08:57:04;7.65;;;3.97;;
21237;SDS011;10777;50.828;3.264;2022-07-29T08:59:30;8.95;;;3.42;;
21237;SDS011;10777;50.828;3.264;2022-07-29T09:01:59;10.70;;;3.78;;
21237;SDS011;10777;50.828;3.264;2022-07-29T09:04:26;7.28;;;3.42;;
21237;SDS011;10777;50.828;3.264;2022-07-29T09:07:00;12.02;;;3.30;;
21237;SDS011;10777;50.828;3.264;2022-07-29T09:09:27;12.30;;;3.90;;
21237;SDS011;10777;50.828;3.264;2022-07-29T09:11:53;8.15;;;3.80;;
21237;SDS011;10777;50.828;3.264;2022-07-29T09:14:19;12.13;;;3.30;;
21237;SDS011;10777;50.828;3.264;2022-07-29T09:16:46;9.75;;;3.42;;
21237;SDS011;10777;50.828;3.264;2022-07-29T09:19:31;7.95;;;3.78;;
21237;SDS011;10777;50.828;3.264;2022-07-29T09:22:00;8.73;;;3.90;;
21237;SDS011;10777;50.828;3.264;2022-07-29T09:27:18;8.20;;;3.50;;
21237;SDS011;10777;50.828;3.264;2022-07-29T09:29:46;8.48;;;3.53;;
21237;SDS011;10777;50.828;3.264;2022-07-29T09:32:20;11.88;;;3.83;;
21237;SDS011;10777;50.828;3.264;2022-07-29T09:34:46;13.43;;;4.00;;
21237;SDS011;10777;50.828;3.264;2022-07-29T09:37:11;10.88;;;5.07;;
21237;SDS011;10777;50.828;3.264;2022-07-29T09:39:51;6.88;;;3.70;;
21237;SDS011;10777;50.828;3.264;2022-07-29T09:42:27;10.45;;;3.13;;
21237;SDS011;10777;50.828;3.264;2022-07-29T09:44:54;7.55;;;3.15;;
21237;SDS011;10777;50.828;3.264;2022-07-29T09:47:20;8.45;;;3.17;;
21237;SDS011;10777;50.828;3.264;2022-07-29T09:49:53;10.35;;;3.30;;
21237;SDS011;10777;50.828;3.264;2022-07-29T09:52:23;8.27;;;2.85;;
21237;SDS011;10777;50.828;3.264;2022-07-29T09:54:49;15.43;;;3.92;;
21237;SDS011;10777;50.828;3.264;2022-07-29T09:57:31;12.13;;;3.75;;
21237;SDS011;10777;50.828;3.264;2022-07-29T09:59:58;10.80;;;3.85;;
21237;SDS011;10777;50.828;3.264;2022-07-29T10:02:28;6.07;;;3.08;;
21237;SDS011;10777;50.828;3.264;2022-07-29T10:04:57;8.07;;;3.03;;
21237;SDS011;10777;50.828;3.264;2022-07-29T10:07:49;7.05;;;2.97;;
21237;SDS011;10777;50.828;3.264;2022-07-29T10:10:20;7.20;;;2.67;;
21237;SDS011;10777;50.828;3.264;2022-07-29T10:12:49;5.90;;;2.60;;
21237;SDS011;10777;50.828;3.264;2022-07-29T10:15:16;7.43;;;2.72;;
21237;SDS011;10777;50.828;3.264;2022-07-29T10:17:43;4.18;;;2.80;;
21237;SDS011;10777;50.828;3.264;2022-07-29T10:20:10;8.05;;;2.78;;
21237;SDS011;10777;50.828;3.264;2022-07-29T10:22:36;6.28;;;2.90;;
21237;SDS011;10777;50.828;3.264;2022-07-29T10:25:02;7.03;;;2.58;;
21237;SDS011;10777;50.828;3.264;2022-07-29T10:27:28;8.10;;;2.35;;
21237;SDS011;10777;50.828;3.264;2022-07-29T10:29:54;3.67;;;2.60;;
21237;SDS011;10777;50.828;3.264;2022-07-29T10:32:25;3.92;;;3.10;;
21237;SDS011;10777;50.828;3.264;2022-07-29T10:41:07;9.20;;;2.22;;
21237;SDS011;10777;50.828;3.264;2022-07-29T10:43:56;6.35;;;2.38;;
21237;SDS011;10777;50.828;3.264;2022-07-29T10:46:28;9.68;;;2.55;;
21237;SDS011;10777;50.828;3.264;2022-07-29T10:51:51;10.95;;;2.22;;
21237;SDS011;10777;50.828;3.264;2022-07-29T10:54:39;7.13;;;3.90;;
21237;SDS011;10777;50.828;3.264;2022-07-29T10:57:24;5.03;;;2.42;;
21237;SDS011;10777;50.828;3.264;2022-07-29T11:02:55;9.25;;;2.50;;
21237;SDS011;10777;50.828;3.264;2022-07-29T11:05:23;7.50;;;2.15;;
21237;SDS011;10777;50.828;3.264;2022-07-29T11:08:23;7.50;;;2.13;;
21237;SDS011;10777;50.828;3.264;2022-07-29T11:10:47;6.97;;;2.58;;
21237;SDS011;10777;50.828;3.264;2022-07-29T11:13:39;6.20;;;2.00;;
21237;SDS011;10777;50.828;3.264;2022-07-29T11:16:15;12.40;;;2.83;;
21237;SDS011;10777;50.828;3.264;2022-07-29T11:21:49;10.55;;;2.40;;
21237;SDS011;10777;50.828;3.264;2022-07-29T11:24:15;7.38;;;2.67;;
21237;SDS011;10777;50.828;3.264;2022-07-29T11:27:09;6.45;;;2.20;;
21237;SDS011;10777;50.828;3.264;2022-07-29T11:29:51;5.80;;;2.45;;
21237;SDS011;10777;50.828;3.264;2022-07-29T11:32:22;6.15;;;2.30;;
21237;SDS011;10777;50.828;3.264;2022-07-29T11:35:10;4.20;;;2.00;;
21237;SDS011;10777;50.828;3.264;2022-07-29T11:43:51;3.30;;;1.80;;
21237;SDS011;10777;50.828;3.264;2022-07-29T11:49:20;6.85;;;2.28;;
21237;SDS011;10777;50.828;3.264;2022-07-29T11:51:51;5.80;;;2.70;;
21237;SDS011;10777;50.828;3.264;2022-07-29T11:54:21;10.20;;;2.10;;
21237;SDS011;10777;50.828;3.264;2022-07-29T11:56:51;6.50;;;1.90;;
21237;SDS011;10777;50.828;3.264;2022-07-29T11:59:17;7.70;;;2.08;;
21237;SDS011;10777;50.828;3.264;2022-07-29T12:01:53;7.00;;;2.83;;
21237;SDS011;10777;50.828;3.264;2022-07-29T12:04:21;7.03;;;2.65;;
21237;SDS011;10777;50.828;3.264;2022-07-29T12:06:49;11.35;;;2.83;;
21237;SDS011;10777;50.828;3.264;2022-07-29T12:09:16;3.95;;;2.30;;
21237;SDS011;10777;50.828;3.264;2022-07-29T12:11:42;9.32;;;2.60;;
21237;SDS011;10777;50.828;3.264;2022-07-29T12:14:08;4.47;;;2.45;;
21237;SDS011;10777;50.828;3.264;2022-07-29T12:16:34;6.45;;;2.35;;
21237;SDS011;10777;50.828;3.264;2022-07-29T12:19:01;9.57;;;2.95;;
21237;SDS011;10777;50.828;3.264;2022-07-29T12:21:28;8.50;;;2.85;;
21237;SDS011;10777;50.828;3.264;2022-07-29T12:24:08;5.53;;;3.17;;
21237;SDS011;10777;50.828;3.264;2022-07-29T12:26:33;8.63;;;2.33;;
21237;SDS011;10777;50.828;3.264;2022-07-29T12:28:59;7.30;;;2.63;;
21237;SDS011;10777;50.828;3.264;2022-07-29T12:31:25;6.32;;;2.20;;
21237;SDS011;10777;50.828;3.264;2022-07-29T12:33:52;7.95;;;2.33;;
21237;SDS011;10777;50.828;3.264;2022-07-29T12:36:18;9.88;;;2.38;;
21237;SDS011;10777;50.828;3.264;2022-07-29T12:38:44;5.55;;;2.28;;
21237;SDS011;10777;50.828;3.264;2022-07-29T12:41:11;9.48;;;3.25;;
21237;SDS011;10777;50.828;3.264;2022-07-29T12:43:37;11.30;;;3.00;;
21237;SDS011;10777;50.828;3.264;2022-07-29T12:46:12;5.43;;;2.85;;
21237;SDS011;10777;50.828;3.264;2022-07-29T12:48:39;12.98;;;2.70;;
21237;SDS011;10777;50.828;3.264;2022-07-29T12:51:06;6.28;;;2.15;;
21237;SDS011;10777;50.828;3.264;2022-07-29T12:53:34;5.85;;;2.60;;
21237;SDS011;10777;50.828;3.264;2022-07-29T12:56:00;6.28;;;2.60;;
21237;SDS011;10777;50.828;3.264;2022-07-29T12:58:29;8.30;;;2.95;;
21237;SDS011;10777;50.828;3.264;2022-07-29T13:01:01;6.63;;;2.13;;
21237;SDS011;10777;50.828;3.264;2022-07-29T13:03:29;11.43;;;2.83;;
21237;SDS011;10777;50.828;3.264;2022-07-29T13:06:06;6.18;;;2.88;;
21237;SDS011;10777;50.828;3.264;2022-07-29T13:08:32;9.23;;;3.33;;
21237;SDS011;10777;50.828;3.264;2022-07-29T13:10:57;7.28;;;2.40;;
21237;SDS011;10777;50.828;3.264;2022-07-29T13:13:23;7.20;;;2.85;;
21237;SDS011;10777;50.828;3.264;2022-07-29T13:16:04;8.45;;;2.63;;
21237;SDS011;10777;50.828;3.264;2022-07-29T13:18:33;6.53;;;2.05;;
21237;SDS011;10777;50.828;3.264;2022-07-29T13:21:11;8.75;;;2.28;;
21237;SDS011;10777;50.828;3.264;2022-07-29T13:23:38;8.75;;;2.20;;
21237;SDS011;10777;50.828;3.264;2022-07-29T13:26:07;6.05;;;1.75;;
21237;SDS011;10777;50.828;3.264;2022-07-29T13:28:34;9.02;;;2.17;;
21237;SDS011;10777;50.828;3.264;2022-07-29T13:31:00;10.38;;;2.33;;
21237;SDS011;10777;50.828;3.264;2022-07-29T13:33:26;8.50;;;1.90;;
21237;SDS011;10777;50.828;3.264;2022-07-29T13:35:52;14.38;;;3.78;;
21237;SDS011;10777;50.828;3.264;2022-07-29T13:38:18;3.88;;;2.50;;
21237;SDS011;10777;50.828;3.264;2022-07-29T13:40:44;6.00;;;2.40;;
21237;SDS011;10777;50.828;3.264;2022-07-29T13:43:10;6.88;;;2.80;;
21237;SDS011;10777;50.828;3.264;2022-07-29T13:45:36;5.60;;;2.35;;
21237;SDS011;10777;50.828;3.264;2022-07-29T13:48:03;3.33;;;1.67;;
21237;SDS011;10777;50.828;3.264;2022-07-29T13:50:31;11.77;;;2.75;;
21237;SDS011;10777;50.828;3.264;2022-07-29T13:52:57;8.30;;;2.47;;
21237;SDS011;10777;50.828;3.264;2022-07-29T13:55:23;5.35;;;2.20;;
21237;SDS011;10777;50.828;3.264;2022-07-29T13:57:49;5.97;;;2.40;;
21237;SDS011;10777;50.828;3.264;2022-07-29T14:00:14;9.88;;;1.92;;
21237;SDS011;10777;50.828;3.264;2022-07-29T14:02:41;8.13;;;2.15;;
21237;SDS011;10777;50.828;3.264;2022-07-29T14:05:08;4.75;;;1.88;;
21237;SDS011;10777;50.828;3.264;2022-07-29T14:07:35;5.90;;;1.83;;
21237;SDS011;10777;50.828;3.264;2022-07-29T14:10:03;7.93;;;1.55;;
21237;SDS011;10777;50.828;3.264;2022-07-29T14:12:30;4.72;;;1.83;;
21237;SDS011;10777;50.828;3.264;2022-07-29T14:14:55;10.88;;;2.05;;
21237;SDS011;10777;50.828;3.264;2022-07-29T14:17:21;9.23;;;1.77;;
21237;SDS011;10777;50.828;3.264;2022-07-29T14:19:47;9.15;;;2.05;;
21237;SDS011;10777;50.828;3.264;2022-07-29T14:22:13;8.07;;;1.77;;
21237;SDS011;10777;50.828;3.264;2022-07-29T14:24:39;5.22;;;1.77;;
21237;SDS011;10777;50.828;3.264;2022-07-29T14:27:05;7.93;;;2.00;;
21237;SDS011;10777;50.828;3.264;2022-07-29T14:29:32;3.58;;;1.40;;
21237;SDS011;10777;50.828;3.264;2022-07-29T14:31:58;5.57;;;1.88;;
21237;SDS011;10777;50.828;3.264;2022-07-29T14:34:24;5.40;;;1.90;;
21237;SDS011;10777;50.828;3.264;2022-07-29T14:36:50;5.15;;;1.45;;
21237;SDS011;10777;50.828;3.264;2022-07-29T14:39:16;5.20;;;1.70;;
21237;SDS011;10777;50.828;3.264;2022-07-29T14:41:42;5.68;;;1.55;;
21237;SDS011;10777;50.828;3.264;2022-07-29T14:44:08;8.40;;;1.80;;
21237;SDS011;10777;50.828;3.264;2022-07-29T14:46:34;5.35;;;2.00;;
21237;SDS011;10777;50.828;3.264;2022-07-29T14:49:00;6.15;;;1.88;;
21237;SDS011;10777;50.828;3.264;2022-07-29T14:51:25;8.43;;;1.90;;
21237;SDS011;10777;50.828;3.264;2022-07-29T14:53:52;5.10;;;1.73;;
21237;SDS011;10777;50.828;3.264;2022-07-29T14:56:17;5.03;;;1.80;;
21237;SDS011;10777;50.828;3.264;2022-07-29T14:58:43;10.52;;;1.63;;
21237;SDS011;10777;50.828;3.264;2022-07-29T15:01:09;8.82;;;1.80;;
21237;SDS011;10777;50.828;3.264;2022-07-29T15:03:34;6.47;;;1.60;;
21237;SDS011;10777;50.828;3.264;2022-07-29T15:06:00;5.55;;;1.83;;
21237;SDS011;10777;50.828;3.264;2022-07-29T15:08:26;4.68;;;1.92;;
21237;SDS011;10777;50.828;3.264;2022-07-29T15:10:54;7.10;;;1.98;;
21237;SDS011;10777;50.828;3.264;2022-07-29T15:13:22;7.82;;;1.50;;
21237;SDS011;10777;50.828;3.264;2022-07-29T15:15:48;5.22;;;2.05;;
21237;SDS011;10777;50.828;3.264;2022-07-29T15:18:14;7.28;;;1.30;;
21237;SDS011;10777;50.828;3.264;2022-07-29T15:20:40;8.40;;;2.17;;
21237;SDS011;10777;50.828;3.264;2022-07-29T15:23:06;2.80;;;1.60;;
21237;SDS011;10777;50.828;3.264;2022-07-29T15:25:34;12.68;;;1.92;;